createdAt,value
2023-04-27T00:02:05.181Z,8.01
2023-04-27T00:04:33.389Z,7.96
2023-04-27T00:07:01.931Z,7.95
2023-04-27T00:09:29.730Z,7.95
2023-04-27T00:11:57.873Z,7.94
2023-04-27T00:14:28.747Z,7.96
2023-04-27T00:16:56.899Z,7.95
2023-04-27T00:19:24.792Z,7.95
2023-04-27T00:21:52.824Z,7.97
2023-04-27T00:24:20.894Z,8.01
2023-04-27T00:26:49.139Z,8.06
2023-04-27T00:29:16.956Z,8.09
2023-04-27T00:31:44.818Z,8.11
2023-04-27T00:34:13.082Z,8.14
2023-04-27T00:36:40.784Z,8.17
2023-04-27T00:39:09.278Z,8.17
2023-04-27T00:41:38.327Z,8.17
2023-04-27T00:44:06.402Z,8.15
2023-04-27T00:46:36.593Z,8.13
2023-04-27T00:49:04.497Z,8.10
2023-04-27T00:51:32.576Z,8.08
2023-04-27T00:54:01.160Z,8.05
2023-04-27T00:56:28.964Z,8.04
2023-04-27T00:58:57.219Z,8.04
2023-04-27T01:01:26.136Z,8.05
2023-04-27T01:03:55.079Z,8.06
2023-04-27T01:06:24.079Z,8.05
2023-04-27T01:08:51.952Z,8.06
2023-04-27T01:11:20.066Z,8.06
2023-04-27T01:13:48.176Z,8.06
2023-04-27T01:16:19.552Z,8.05
2023-04-27T01:18:47.452Z,8.07
2023-04-27T01:21:15.215Z,8.07
2023-04-27T01:23:43.196Z,8.07
2023-04-27T01:26:13.917Z,8.10
2023-04-27T01:28:43.276Z,8.15
2023-04-27T01:31:11.833Z,8.19
2023-04-27T01:33:40.158Z,8.22
2023-04-27T01:36:08.561Z,8.23
2023-04-27T01:38:37.228Z,8.23
2023-04-27T01:41:06.206Z,8.24
2023-04-27T01:43:33.996Z,8.23
2023-04-27T01:46:06.854Z,8.22
2023-04-27T01:48:36.188Z,8.20
2023-04-27T01:51:04.450Z,8.20
2023-04-27T01:53:32.343Z,8.21
2023-04-27T01:56:00.890Z,8.21
2023-04-27T01:58:29.065Z,8.16
2023-04-27T02:00:58.018Z,8.12
2023-04-27T02:03:26.574Z,8.08
2023-04-27T02:05:54.619Z,8.03
2023-04-27T02:08:22.546Z,7.95
2023-04-27T02:10:50.329Z,7.90
2023-04-27T02:13:18.567Z,7.85
2023-04-27T02:15:46.567Z,7.83
2023-04-27T02:18:15.997Z,7.81
2023-04-27T02:20:44.352Z,7.81
2023-04-27T02:23:12.518Z,7.80
2023-04-27T02:25:42.995Z,7.78
2023-04-27T02:28:11.004Z,7.71
2023-04-27T02:30:39.735Z,7.62
2023-04-27T02:33:08.261Z,7.57
2023-04-27T02:35:36.378Z,7.54
2023-04-27T02:38:04.449Z,7.54
2023-04-27T02:40:32.234Z,7.50
2023-04-27T02:43:00.041Z,7.46
2023-04-27T02:45:28.898Z,7.40
2023-04-27T02:47:57.056Z,7.37
2023-04-27T02:50:24.842Z,7.33
2023-04-27T02:52:53.678Z,7.28
2023-04-27T02:55:21.970Z,7.24
2023-04-27T02:57:49.883Z,7.24
2023-04-27T03:00:19.047Z,7.25
2023-04-27T03:02:46.941Z,7.23
2023-04-27T03:05:15.119Z,7.21
2023-04-27T03:07:43.349Z,7.18
2023-04-27T03:10:11.262Z,7.15
2023-04-27T03:12:39.365Z,7.15
2023-04-27T03:15:07.921Z,7.13
2023-04-27T03:17:37.572Z,7.15
2023-04-27T03:20:10.303Z,7.16
2023-04-27T03:22:38.529Z,7.14
2023-04-27T03:25:07.036Z,7.10
2023-04-27T03:27:35.459Z,7.06
2023-04-27T03:30:04.634Z,7.04
2023-04-27T03:32:32.485Z,7.01
2023-04-27T03:35:03.527Z,7.00
2023-04-27T03:37:31.738Z,6.98
2023-04-27T03:40:00.274Z,6.93
2023-04-27T03:42:29.071Z,6.89
2023-04-27T03:44:57.028Z,6.90
2023-04-27T03:47:25.273Z,6.89
2023-04-27T03:49:53.861Z,6.87
2023-04-27T03:52:22.245Z,6.87
2023-04-27T03:54:50.758Z,6.90
2023-04-27T03:57:24.010Z,6.91
2023-04-27T03:59:52.166Z,6.91
2023-04-27T04:02:20.404Z,6.90
2023-04-27T04:04:48.522Z,6.92
2023-04-27T04:07:16.829Z,6.94
2023-04-27T04:09:44.954Z,6.90
2023-04-27T04:12:14.991Z,6.87
2023-04-27T04:14:43.379Z,6.88
2023-04-27T04:17:13.809Z,6.87
2023-04-27T04:19:41.891Z,6.85
2023-04-27T04:22:09.989Z,6.87
2023-04-27T04:24:40.136Z,6.89
2023-04-27T04:27:09.059Z,6.90
2023-04-27T04:29:37.802Z,6.94
2023-04-27T04:32:07.634Z,7.02
2023-04-27T04:34:36.408Z,7.15
2023-04-27T04:37:05.552Z,7.37
2023-04-27T04:39:34.053Z,7.66
2023-04-27T04:42:04.323Z,8.00
2023-04-27T04:44:33.300Z,8.35
2023-04-27T04:47:01.315Z,8.68
2023-04-27T04:49:29.495Z,8.91
2023-04-27T04:51:57.378Z,9.14
2023-04-27T04:54:25.173Z,9.39
2023-04-27T04:56:52.994Z,9.53
2023-04-27T04:59:20.925Z,9.61
2023-04-27T05:01:49.206Z,9.74
2023-04-27T05:04:18.773Z,9.83
2023-04-27T05:06:47.387Z,9.83
2023-04-27T05:09:15.493Z,9.88
2023-04-27T05:11:43.633Z,9.92
2023-04-27T05:14:11.742Z,10.14
2023-04-27T05:16:39.582Z,10.36
2023-04-27T05:19:08.493Z,10.60
2023-04-27T05:21:36.594Z,10.80
2023-04-27T05:24:04.708Z,10.96
2023-04-27T05:26:35.721Z,11.09
2023-04-27T05:29:03.812Z,11.03
2023-04-27T05:31:31.781Z,11.05
2023-04-27T05:33:59.676Z,11.17
2023-04-27T05:36:28.925Z,11.28
2023-04-27T05:38:56.847Z,11.36
2023-04-27T05:41:25.384Z,11.37
2023-04-27T05:43:53.663Z,11.27
2023-04-27T05:46:21.498Z,11.19
2023-04-27T05:48:49.619Z,11.07
2023-04-27T05:51:17.756Z,10.93
2023-04-27T05:53:45.860Z,10.98
2023-04-27T05:56:14.190Z,11.10
2023-04-27T05:58:42.502Z,11.22
2023-04-27T06:01:10.852Z,11.23
2023-04-27T06:03:39.289Z,11.21
2023-04-27T06:06:07.485Z,11.22
2023-04-27T06:08:37.480Z,11.21
2023-04-27T06:11:06.292Z,11.16
2023-04-27T06:13:34.248Z,11.08
2023-04-27T06:16:02.442Z,11.11
2023-04-27T06:18:30.641Z,11.20
2023-04-27T06:21:02.265Z,11.39
2023-04-27T06:23:30.533Z,11.57
2023-04-27T06:25:59.046Z,11.67
2023-04-27T06:28:27.331Z,11.71
2023-04-27T06:30:55.584Z,11.81
2023-04-27T06:33:23.384Z,11.87
2023-04-27T06:35:51.703Z,11.94
2023-04-27T06:38:19.983Z,11.99
2023-04-27T06:40:50.679Z,11.88
2023-04-27T06:43:18.843Z,11.86
2023-04-27T06:45:46.813Z,11.97
2023-04-27T06:48:14.718Z,12.08
2023-04-27T06:50:43.195Z,12.14
2023-04-27T06:53:11.362Z,12.08
2023-04-27T06:55:40.414Z,12.05
2023-04-27T06:58:10.323Z,12.05
2023-04-27T07:00:38.105Z,12.15
2023-04-27T07:03:06.571Z,12.16
2023-04-27T07:05:34.968Z,12.14
2023-04-27T07:08:06.208Z,12.10
2023-04-27T07:10:36.699Z,12.14
2023-04-27T07:13:05.822Z,12.22
2023-04-27T07:15:35.445Z,12.19
2023-04-27T07:18:03.538Z,12.19
2023-04-27T07:20:31.954Z,12.32
2023-04-27T07:23:00.530Z,12.38
2023-04-27T07:25:28.294Z,12.39
2023-04-27T07:27:57.088Z,12.39
2023-04-27T07:30:25.042Z,12.38
2023-04-27T07:32:54.962Z,12.44
2023-04-27T07:35:23.232Z,12.52
2023-04-27T07:37:52.146Z,12.72
2023-04-27T07:40:20.298Z,12.97
2023-04-27T07:42:48.253Z,13.10
2023-04-27T07:45:18.186Z,13.16
2023-04-27T07:47:46.825Z,13.27
2023-04-27T07:50:19.923Z,13.39
2023-04-27T07:52:47.842Z,13.48
2023-04-27T07:55:16.343Z,13.58
2023-04-27T07:57:44.139Z,13.65
2023-04-27T08:00:13.644Z,13.77
2023-04-27T08:02:41.556Z,13.91
2023-04-27T08:05:10.402Z,14.11
2023-04-27T08:07:44.176Z,14.19
2023-04-27T08:10:13.295Z,14.28
2023-04-27T08:12:41.548Z,14.35
2023-04-27T08:15:10.107Z,14.42
2023-04-27T08:17:40.716Z,14.48
2023-04-27T08:20:11.850Z,14.57
2023-04-27T08:22:41.014Z,14.61
2023-04-27T08:25:09.353Z,14.58
2023-04-27T08:27:38.484Z,14.32
2023-04-27T08:30:07.272Z,14.12
2023-04-27T08:32:35.318Z,14.15
2023-04-27T08:35:04.514Z,14.27
2023-04-27T08:37:32.498Z,14.32
2023-04-27T08:40:00.640Z,14.34
2023-04-27T08:42:31.159Z,14.28
2023-04-27T08:44:59.537Z,14.13
2023-04-27T08:47:39.066Z,14.15
2023-04-27T08:50:10.527Z,14.20
2023-04-27T08:52:38.685Z,14.05
2023-04-27T08:55:08.526Z,13.91
2023-04-27T08:57:36.499Z,13.89
2023-04-27T09:00:12.567Z,13.80
2023-04-27T09:02:47.052Z,13.66
2023-04-27T09:05:19.002Z,13.53
2023-04-27T09:07:59.932Z,13.53
2023-04-27T09:10:31.143Z,13.51
2023-04-27T09:13:00.426Z,13.49
2023-04-27T09:15:28.920Z,13.66
2023-04-27T09:17:56.904Z,13.71
2023-04-27T09:20:27.602Z,13.69
2023-04-27T09:22:57.834Z,13.53
2023-04-27T09:25:31.585Z,13.36
2023-04-27T09:28:00.451Z,13.21
2023-04-27T09:30:29.734Z,13.12
2023-04-27T09:32:59.572Z,13.00
2023-04-27T09:35:29.343Z,12.89
2023-04-27T09:37:58.308Z,12.77
2023-04-27T09:40:28.228Z,12.84
2023-04-27T09:42:57.119Z,13.10
2023-04-27T09:45:25.886Z,13.31
2023-04-27T09:47:54.322Z,13.55
2023-04-27T09:50:22.338Z,13.74
2023-04-27T09:52:50.149Z,13.90
2023-04-27T09:55:21.468Z,13.93
2023-04-27T09:58:08.424Z,13.82
2023-04-27T10:00:42.946Z,13.70
2023-04-27T10:03:30.143Z,13.64
2023-04-27T10:06:10.706Z,13.66
2023-04-27T10:08:38.847Z,13.61
2023-04-27T10:11:17.157Z,13.62
2023-04-27T10:13:55.128Z,13.68
2023-04-27T10:16:23.494Z,13.55
2023-04-27T10:18:55.093Z,13.41
2023-04-27T10:21:23.857Z,13.31
2023-04-27T10:23:52.249Z,13.18
2023-04-27T10:26:26.727Z,13.16
2023-04-27T10:29:08.997Z,13.18
2023-04-27T10:31:43.681Z,13.15
2023-04-27T10:34:16.010Z,13.09
2023-04-27T10:36:44.203Z,13.07
2023-04-27T10:39:18.761Z,13.18
2023-04-27T10:41:54.001Z,13.28
2023-04-27T10:44:24.781Z,13.44
2023-04-27T10:46:54.096Z,13.48
2023-04-27T10:49:22.641Z,13.50
2023-04-27T10:51:51.413Z,13.52
2023-04-27T10:54:19.290Z,13.53
2023-04-27T10:56:47.544Z,13.56
2023-04-27T10:59:15.874Z,13.62
2023-04-27T11:01:48.041Z,13.56
2023-04-27T11:04:17.900Z,13.55
2023-04-27T11:06:47.161Z,13.53
2023-04-27T11:09:25.230Z,13.65
2023-04-27T11:11:53.990Z,13.90
2023-04-27T11:14:22.242Z,13.96
2023-04-27T11:16:50.743Z,14.00
2023-04-27T11:19:18.598Z,13.87
2023-04-27T11:21:46.552Z,13.83
2023-04-27T11:24:15.612Z,14.05
2023-04-27T11:26:43.636Z,14.18
2023-04-27T11:29:14.499Z,14.14
2023-04-27T11:31:43.839Z,14.04
2023-04-27T11:34:16.289Z,13.96
2023-04-27T11:36:44.559Z,13.87
2023-04-27T11:39:22.445Z,13.73
2023-04-27T11:41:51.548Z,13.60
2023-04-27T11:44:19.368Z,13.51
2023-04-27T11:46:47.742Z,13.43
2023-04-27T11:49:16.158Z,13.35
2023-04-27T11:51:46.476Z,13.25
2023-04-27T11:54:15.046Z,13.31
2023-04-27T11:56:43.118Z,13.40
2023-04-27T11:59:21.107Z,13.64
2023-04-27T12:01:49.321Z,14.14
2023-04-27T12:04:17.713Z,14.42
2023-04-27T12:06:48.450Z,14.59
2023-04-27T12:09:17.920Z,14.62
2023-04-27T12:11:45.811Z,14.58
2023-04-27T12:14:13.835Z,14.62
2023-04-27T12:16:42.019Z,14.65
2023-04-27T12:19:10.202Z,14.49
2023-04-27T12:21:37.978Z,14.26
2023-04-27T12:24:06.213Z,14.06
2023-04-27T12:26:34.403Z,13.95
2023-04-27T12:29:02.679Z,13.91
2023-04-27T12:31:31.369Z,13.91
2023-04-27T12:33:59.508Z,13.92
2023-04-27T12:36:28.776Z,13.88
2023-04-27T12:38:58.712Z,13.88
2023-04-27T12:41:26.683Z,13.88
2023-04-27T12:43:54.682Z,13.89
2023-04-27T12:46:22.786Z,13.88
2023-04-27T12:48:50.962Z,13.83
2023-04-27T12:51:18.865Z,13.78
2023-04-27T12:53:47.206Z,13.68
2023-04-27T12:56:15.352Z,13.50
2023-04-27T12:58:43.085Z,13.39
2023-04-27T13:01:15.326Z,13.27
2023-04-27T13:03:44.476Z,13.24
2023-04-27T13:06:13.770Z,13.30
2023-04-27T13:08:42.370Z,13.33
2023-04-27T13:11:10.312Z,13.32
2023-04-27T13:13:38.563Z,13.31
2023-04-27T13:16:06.576Z,13.31
2023-04-27T13:18:35.656Z,13.24
2023-04-27T13:21:05.244Z,13.28
2023-04-27T13:23:33.115Z,13.28
2023-04-27T13:26:01.631Z,13.24
2023-04-27T13:28:29.707Z,13.26
2023-04-27T13:31:00.087Z,13.34
2023-04-27T13:33:28.444Z,13.48
2023-04-27T13:35:56.680Z,13.53
2023-04-27T13:38:24.547Z,13.68
2023-04-27T13:40:53.867Z,13.91
2023-04-27T13:43:23.010Z,14.11
2023-04-27T13:45:56.510Z,14.40
2023-04-27T13:48:25.950Z,14.43
2023-04-27T13:50:54.307Z,14.34
2023-04-27T13:53:25.964Z,14.23
2023-04-27T13:55:55.101Z,14.12
2023-04-27T13:58:25.765Z,13.96
2023-04-27T14:00:56.877Z,13.85
2023-04-27T14:03:25.264Z,13.76
2023-04-27T14:05:53.403Z,13.68
2023-04-27T14:08:22.636Z,13.57
2023-04-27T14:10:50.713Z,13.53
2023-04-27T14:13:19.084Z,13.44
2023-04-27T14:15:46.964Z,13.40
2023-04-27T14:18:15.575Z,13.34
2023-04-27T14:20:44.746Z,13.28
2023-04-27T14:23:12.765Z,13.18
2023-04-27T14:25:41.461Z,13.17
2023-04-27T14:28:12.174Z,13.16
2023-04-27T14:30:40.144Z,13.12
2023-04-27T14:33:07.948Z,13.06
2023-04-27T14:35:37.306Z,12.98
2023-04-27T14:38:05.649Z,12.93
2023-04-27T14:40:33.644Z,12.92
2023-04-27T14:43:01.680Z,12.93
2023-04-27T14:45:39.796Z,12.92
2023-04-27T14:48:12.879Z,12.85
2023-04-27T14:50:40.802Z,12.83
2023-04-27T14:53:08.884Z,12.85
2023-04-27T14:55:37.069Z,12.87
2023-04-27T14:58:05.094Z,12.85
2023-04-27T15:00:32.846Z,12.85
2023-04-27T15:03:00.974Z,12.87
2023-04-27T15:05:28.921Z,12.87
2023-04-27T15:07:56.970Z,12.86
2023-04-27T15:10:25.132Z,12.84
2023-04-27T15:12:52.802Z,12.86
2023-04-27T15:15:21.258Z,12.93
2023-04-27T15:17:49.448Z,13.10
2023-04-27T15:20:17.183Z,13.09
2023-04-27T15:22:47.604Z,13.05
2023-04-27T15:25:15.491Z,13.02
2023-04-27T15:27:43.525Z,12.97
2023-04-27T15:30:12.231Z,12.89
2023-04-27T15:32:40.101Z,12.79
2023-04-27T15:35:08.445Z,12.69
2023-04-27T15:37:36.836Z,12.61
2023-04-27T15:40:07.507Z,12.56
2023-04-27T15:42:35.255Z,12.52
2023-04-27T15:45:04.156Z,12.47
2023-04-27T15:47:32.269Z,12.45
2023-04-27T15:50:00.809Z,12.48
2023-04-27T15:52:29.031Z,12.54
2023-04-27T15:54:57.351Z,12.60
2023-04-27T15:57:25.262Z,12.68
2023-04-27T15:59:53.216Z,12.75
2023-04-27T16:02:21.542Z,12.82
2023-04-27T16:04:49.924Z,12.87
2023-04-27T16:07:17.717Z,12.95
2023-04-27T16:09:45.615Z,12.95
2023-04-27T16:12:13.456Z,12.92
2023-04-27T16:14:41.515Z,12.85
2023-04-27T16:17:09.918Z,12.79
2023-04-27T16:19:38.274Z,12.71
2023-04-27T16:22:06.868Z,12.62
2023-04-27T16:24:34.866Z,12.52
2023-04-27T16:27:03.862Z,12.45
2023-04-27T16:29:31.740Z,12.36
2023-04-27T16:32:00.679Z,12.30
2023-04-27T16:34:28.795Z,12.29
2023-04-27T16:36:56.805Z,12.26
2023-04-27T16:39:26.105Z,12.20
2023-04-27T16:41:54.568Z,12.15
2023-04-27T16:44:24.188Z,12.09
2023-04-27T16:46:52.713Z,12.02
2023-04-27T16:49:20.561Z,11.96
2023-04-27T16:51:48.421Z,11.92
2023-04-27T16:54:16.694Z,11.89
2023-04-27T16:56:45.882Z,11.83
2023-04-27T16:59:14.058Z,11.79
2023-04-27T17:01:42.613Z,11.77
2023-04-27T17:04:11.404Z,11.75
2023-04-27T17:06:40.704Z,11.73
2023-04-27T17:09:10.273Z,11.73
2023-04-27T17:11:38.230Z,11.74
2023-04-27T17:14:05.975Z,11.74
2023-04-27T17:16:34.189Z,11.74
2023-04-27T17:19:01.987Z,11.73
2023-04-27T17:21:30.003Z,11.71
2023-04-27T17:23:57.770Z,11.72
2023-04-27T17:26:26.148Z,11.70
2023-04-27T17:29:00.047Z,11.69
2023-04-27T17:31:28.306Z,11.67
2023-04-27T17:33:56.391Z,11.61
2023-04-27T17:36:24.580Z,11.56
2023-04-27T17:38:52.297Z,11.52
2023-04-27T17:41:20.151Z,11.50
2023-04-27T17:43:49.550Z,11.47
2023-04-27T17:46:17.477Z,11.43
2023-04-27T17:48:45.667Z,11.39
2023-04-27T17:51:13.635Z,11.35
2023-04-27T17:53:42.113Z,11.33
2023-04-27T17:56:10.075Z,11.32
2023-04-27T17:58:37.872Z,11.32
2023-04-27T18:01:10.067Z,11.31
2023-04-27T18:03:38.252Z,11.32
2023-04-27T18:06:06.243Z,11.30
2023-04-27T18:08:34.664Z,11.31
2023-04-27T18:11:02.833Z,11.29
2023-04-27T18:13:32.584Z,11.29
2023-04-27T18:16:00.595Z,11.28
2023-04-27T18:18:28.424Z,11.25
2023-04-27T18:20:56.463Z,11.22
2023-04-27T18:23:24.713Z,11.21
2023-04-27T18:25:53.021Z,11.21
2023-04-27T18:28:23.851Z,11.22
2023-04-27T18:30:52.283Z,11.21
2023-04-27T18:33:21.284Z,11.20
2023-04-27T18:35:51.095Z,11.20
2023-04-27T18:38:19.204Z,11.21
2023-04-27T18:40:47.175Z,11.17
2023-04-27T18:43:15.184Z,11.14
2023-04-27T18:45:42.985Z,11.12
2023-04-27T18:48:10.993Z,11.07
2023-04-27T18:50:38.801Z,11.01
2023-04-27T18:53:07.316Z,10.94
2023-04-27T18:55:35.123Z,10.88
2023-04-27T18:58:03.059Z,10.85
2023-04-27T19:00:31.080Z,10.80
2023-04-27T19:02:59.082Z,10.75
2023-04-27T19:05:26.986Z,10.68
2023-04-27T19:07:54.876Z,10.60
2023-04-27T19:10:22.728Z,10.54
2023-04-27T19:12:51.240Z,10.47
2023-04-27T19:15:19.425Z,10.40
2023-04-27T19:17:52.574Z,10.35
2023-04-27T19:20:26.537Z,10.29
2023-04-27T19:22:54.394Z,10.22
2023-04-27T19:25:23.240Z,10.13
2023-04-27T19:27:51.396Z,10.01
2023-04-27T19:30:19.471Z,9.89
2023-04-27T19:32:47.289Z,9.82
2023-04-27T19:35:15.503Z,9.76
2023-04-27T19:37:43.450Z,9.72
2023-04-27T19:40:12.123Z,9.65
2023-04-27T19:42:40.079Z,9.55
2023-04-27T19:45:08.181Z,9.42
2023-04-27T19:47:36.367Z,9.30
2023-04-27T19:50:05.087Z,9.25
2023-04-27T19:52:32.948Z,9.22
2023-04-27T19:55:01.719Z,9.22
2023-04-27T19:57:29.549Z,9.21
2023-04-27T19:59:57.396Z,9.16
2023-04-27T20:02:25.268Z,9.11
2023-04-27T20:04:53.820Z,9.07
2023-04-27T20:07:21.852Z,9.02
2023-04-27T20:09:49.770Z,8.97
2023-04-27T20:12:37.227Z,8.93
2023-04-27T20:15:06.751Z,8.89
2023-04-27T20:17:34.749Z,8.86
2023-04-27T20:20:03.088Z,8.80
2023-04-27T20:22:31.490Z,8.74
2023-04-27T20:24:59.417Z,8.70
2023-04-27T20:27:27.520Z,8.65
2023-04-27T20:29:55.603Z,8.58
2023-04-27T20:32:23.536Z,8.54
2023-04-27T20:34:51.625Z,8.52
2023-04-27T20:37:19.405Z,8.50
2023-04-27T20:39:47.677Z,8.50
2023-04-27T20:42:16.106Z,8.49
2023-04-27T20:44:46.066Z,8.47
2023-04-27T20:47:17.549Z,8.42
2023-04-27T20:49:45.772Z,8.37
2023-04-27T20:52:13.560Z,8.33
2023-04-27T20:54:41.541Z,8.26
2023-04-27T20:57:13.600Z,8.19
2023-04-27T20:59:41.858Z,8.12
2023-04-27T21:02:09.660Z,8.04
2023-04-27T21:04:37.852Z,7.98
2023-04-27T21:07:06.188Z,7.91
2023-04-27T21:09:35.057Z,7.83
2023-04-27T21:12:03.218Z,7.76
2023-04-27T21:14:31.187Z,7.73
2023-04-27T21:16:59.337Z,7.70
2023-04-27T21:19:27.335Z,7.67
2023-04-27T21:21:55.256Z,7.64
2023-04-27T21:24:23.396Z,7.59
2023-04-27T21:26:51.350Z,7.49
2023-04-27T21:29:19.394Z,7.38
2023-04-27T21:31:47.191Z,7.30
2023-04-27T21:34:15.229Z,7.25
2023-04-27T21:36:43.534Z,7.22
2023-04-27T21:39:12.135Z,7.19
2023-04-27T21:41:41.070Z,7.18
2023-04-27T21:44:10.311Z,7.17
2023-04-27T21:46:38.191Z,7.15
2023-04-27T21:49:06.048Z,7.11
2023-04-27T21:51:34.923Z,7.08
2023-04-27T21:54:02.801Z,7.06
2023-04-27T21:56:31.899Z,7.03
2023-04-27T21:59:00.017Z,7.00
2023-04-27T22:01:28.083Z,6.95
2023-04-27T22:03:56.394Z,6.88
2023-04-27T22:06:25.644Z,6.81
2023-04-27T22:08:53.941Z,6.78
2023-04-27T22:11:21.979Z,6.75
2023-04-27T22:13:49.876Z,6.69
2023-04-27T22:16:18.078Z,6.64
2023-04-27T22:18:46.124Z,6.58
2023-04-27T22:21:13.986Z,6.54
2023-04-27T22:23:41.919Z,6.51
2023-04-27T22:26:09.834Z,6.47
2023-04-27T22:28:37.601Z,6.43
2023-04-27T22:31:06.264Z,6.39
2023-04-27T22:33:34.070Z,6.36
2023-04-27T22:36:02.670Z,6.31
2023-04-27T22:38:30.804Z,6.28
2023-04-27T22:40:58.593Z,6.26
2023-04-27T22:43:26.536Z,6.25
2023-04-27T22:45:54.390Z,6.27
2023-04-27T22:48:22.178Z,6.26
2023-04-27T22:50:52.793Z,6.24
2023-04-27T22:53:21.291Z,6.21
2023-04-27T22:55:49.373Z,6.17
2023-04-27T22:58:17.269Z,6.12
2023-04-27T23:00:45.094Z,6.08
2023-04-27T23:03:13.199Z,6.05
2023-04-27T23:05:41.597Z,6.01
2023-04-27T23:08:09.535Z,5.96
2023-04-27T23:10:38.941Z,5.95
2023-04-27T23:13:07.444Z,5.95
2023-04-27T23:15:35.170Z,5.94
2023-04-27T23:18:03.093Z,5.95
2023-04-27T23:20:31.425Z,5.95
2023-04-27T23:22:59.494Z,5.96
2023-04-27T23:25:27.256Z,5.98
2023-04-27T23:27:55.742Z,6.00
2023-04-27T23:30:23.663Z,6.01
2023-04-27T23:32:54.235Z,6.01
2023-04-27T23:35:22.120Z,6.01
2023-04-27T23:37:49.898Z,6.01
2023-04-27T23:40:17.713Z,6.00
2023-04-27T23:42:45.599Z,5.98
2023-04-27T23:45:13.501Z,5.93
2023-04-27T23:47:41.701Z,5.89
2023-04-27T23:50:09.620Z,5.85
2023-04-27T23:52:37.600Z,5.83
2023-04-27T23:55:06.070Z,5.84
2023-04-27T23:57:33.890Z,5.84
